createdAt,value
2023-04-16T00:00:58.608Z,97960.03
2023-04-16T00:04:04.510Z,97961.47
2023-04-16T00:07:11.159Z,97955.28
2023-04-16T00:10:19.953Z,97952.81
2023-04-16T00:13:27.699Z,97958.69
2023-04-16T00:16:33.591Z,97968.16
2023-04-16T00:19:40.159Z,97963.59
2023-04-16T00:22:45.825Z,97967.84
2023-04-16T00:25:57.377Z,97971.28
2023-04-16T00:29:04.436Z,97975.06
2023-04-16T00:32:11.205Z,97974.94
2023-04-16T00:35:16.811Z,97976.06
2023-04-16T00:38:23.359Z,97975.94
2023-04-16T00:41:31.557Z,97975.59
2023-04-16T00:44:38.281Z,97973.63
2023-04-16T00:47:44.024Z,97982.47
2023-04-16T00:50:51.340Z,97978.06
2023-04-16T00:53:57.421Z,97984.94
2023-04-16T00:57:06.784Z,97989.19
2023-04-16T01:00:14.629Z,97991.97
2023-04-16T01:03:21.481Z,97988.53
2023-04-16T01:06:27.203Z,97984.75
2023-04-16T01:09:33.622Z,97988.38
2023-04-16T01:12:41.864Z,97993.91
2023-04-16T01:15:48.375Z,97996.88
2023-04-16T01:18:54.017Z,97991.31
2023-04-16T01:22:03.138Z,97992.13
2023-04-16T01:25:09.744Z,97998.69
2023-04-16T01:28:16.750Z,98000.31
2023-04-16T01:31:22.470Z,98005.06
2023-04-16T01:34:54.888Z,98001.47
2023-04-16T01:38:03.240Z,97996.22
2023-04-16T01:41:09.606Z,98007.19
2023-04-16T01:44:15.320Z,98010.44
2023-04-16T01:47:22.020Z,98019.44
2023-04-16T01:50:27.962Z,98013.22
2023-04-16T01:53:37.277Z,98015.00
2023-04-16T01:56:43.813Z,98014.00
2023-04-16T01:59:49.548Z,98008.13
2023-04-16T02:02:57.419Z,98003.91
2023-04-16T02:06:06.217Z,98011.75
2023-04-16T02:09:15.237Z,98009.31
2023-04-16T02:12:21.265Z,98010.94
2023-04-16T02:15:27.939Z,98009.78
2023-04-16T02:18:33.743Z,98010.13
2023-04-16T02:21:40.162Z,98010.28
2023-04-16T02:24:48.532Z,98015.34
2023-04-16T02:27:55.222Z,98015.22
2023-04-16T02:31:15.273Z,98010.63
2023-04-16T02:34:24.346Z,98013.06
2023-04-16T02:37:30.409Z,98011.09
2023-04-16T02:40:39.691Z,98017.81
2023-04-16T02:43:45.360Z,98012.09
2023-04-16T02:46:51.745Z,98023.53
2023-04-16T02:49:57.311Z,98028.44
2023-04-16T02:53:04.563Z,98017.81
2023-04-16T02:56:13.051Z,98024.69
2023-04-16T02:59:19.469Z,98028.59
2023-04-16T03:02:25.339Z,98032.19
2023-04-16T03:05:32.301Z,98036.28
2023-04-16T03:08:37.799Z,98046.53
2023-04-16T03:11:46.833Z,98047.81
2023-04-16T03:14:54.428Z,98051.88
2023-04-16T03:18:01.332Z,98062.94
2023-04-16T03:21:08.126Z,98065.78
2023-04-16T03:24:17.012Z,98068.84
2023-04-16T03:27:25.255Z,98078.22
2023-04-16T03:30:32.431Z,98077.97
2023-04-16T03:33:38.148Z,98085.06
2023-04-16T03:36:44.917Z,98083.06
2023-04-16T03:39:50.933Z,98099.13
2023-04-16T03:42:59.911Z,98085.09
2023-04-16T03:46:09.891Z,98105.28
2023-04-16T03:49:16.957Z,98107.81
2023-04-16T03:52:22.602Z,98104.22
2023-04-16T03:55:29.087Z,98111.38
2023-04-16T03:58:38.556Z,98111.63
2023-04-16T04:01:45.178Z,98111.69
2023-04-16T04:04:51.239Z,98113.63
2023-04-16T04:07:57.831Z,98114.72
2023-04-16T04:11:03.757Z,98127.41
2023-04-16T04:14:14.195Z,98127.78
2023-04-16T04:17:19.966Z,98130.44
2023-04-16T04:20:26.864Z,98135.88
2023-04-16T04:23:32.573Z,98128.72
2023-04-16T04:26:39.087Z,98132.03
2023-04-16T04:29:47.634Z,98151.50
2023-04-16T04:32:54.062Z,98149.22
2023-04-16T04:36:00.293Z,98154.19
2023-04-16T04:39:07.727Z,98166.69
2023-04-16T04:42:13.653Z,98170.09
2023-04-16T04:45:25.687Z,98175.88
2023-04-16T04:48:32.834Z,98176.78
2023-04-16T04:51:39.589Z,98182.00
2023-04-16T04:54:45.190Z,98181.09
2023-04-16T04:57:52.158Z,98187.22
2023-04-16T05:01:01.681Z,98178.16
2023-04-16T05:04:08.624Z,98185.75
2023-04-16T05:07:14.335Z,98186.94
2023-04-16T05:10:20.850Z,98200.22
2023-04-16T05:13:26.722Z,98198.25
2023-04-16T05:16:35.981Z,98193.66
2023-04-16T05:19:41.581Z,98204.16
2023-04-16T05:22:47.962Z,98199.63
2023-04-16T05:25:53.634Z,98199.47
2023-04-16T05:29:00.185Z,98202.75
2023-04-16T05:32:08.646Z,98199.81
2023-04-16T05:35:17.301Z,98192.00
2023-04-16T05:38:23.260Z,98193.81
2023-04-16T05:41:29.730Z,98197.25
2023-04-16T05:44:35.438Z,98197.25
2023-04-16T05:47:44.523Z,98209.72
2023-04-16T05:50:50.080Z,98212.03
2023-04-16T05:53:58.973Z,98225.00
2023-04-16T05:57:04.830Z,98219.59
2023-04-16T06:00:12.730Z,98221.38
2023-04-16T06:03:21.247Z,98215.63
2023-04-16T06:06:29.703Z,98218.72
2023-04-16T06:09:35.280Z,98223.28
2023-04-16T06:12:41.879Z,98230.81
2023-04-16T06:15:48.097Z,98234.81
2023-04-16T06:18:57.078Z,98240.13
2023-04-16T06:22:03.096Z,98233.50
2023-04-16T06:25:11.172Z,98235.97
2023-04-16T06:28:16.767Z,98242.63
2023-04-16T06:31:23.386Z,98252.22
2023-04-16T06:34:32.054Z,98254.81
2023-04-16T06:37:38.673Z,98250.56
2023-04-16T06:40:44.868Z,98246.78
2023-04-16T06:43:51.445Z,98244.25
2023-04-16T06:46:57.240Z,98243.47
2023-04-16T06:50:06.376Z,98243.06
2023-04-16T06:53:12.209Z,98234.53
2023-04-16T06:56:18.765Z,98236.06
2023-04-16T06:59:24.357Z,98240.00
2023-04-16T07:02:31.097Z,98251.38
2023-04-16T07:05:39.328Z,98244.50
2023-04-16T07:08:46.109Z,98243.13
2023-04-16T07:11:51.871Z,98252.66
2023-04-16T07:14:58.338Z,98257.06
2023-04-16T07:18:03.988Z,98257.09
2023-04-16T07:21:13.089Z,98245.09
2023-04-16T07:24:18.657Z,98252.88
2023-04-16T07:27:25.623Z,98251.44
2023-04-16T07:30:34.537Z,98259.59
2023-04-16T07:33:43.531Z,98258.16
2023-04-16T07:36:55.057Z,98260.50
2023-04-16T07:40:03.125Z,98270.06
2023-04-16T07:43:09.295Z,98278.59
2023-04-16T07:46:16.422Z,98277.06
2023-04-16T07:49:22.052Z,98279.84
2023-04-16T07:52:32.368Z,98275.09
2023-04-16T07:55:38.276Z,98293.19
2023-04-16T07:58:45.356Z,98290.41
2023-04-16T08:01:51.865Z,98295.81
2023-04-16T08:05:03.384Z,98293.91
2023-04-16T08:08:12.034Z,98298.78
2023-04-16T08:11:21.808Z,98303.91
2023-04-16T08:14:27.477Z,98301.28
2023-04-16T08:17:34.788Z,98298.97
2023-04-16T08:20:40.825Z,98301.69
2023-04-16T08:23:50.241Z,98307.72
2023-04-16T08:27:00.352Z,98305.69
2023-04-16T08:30:12.007Z,98301.25
2023-04-16T08:33:17.830Z,98294.16
2023-04-16T08:36:24.400Z,98299.88
2023-04-16T08:39:33.290Z,98298.59
2023-04-16T08:42:48.575Z,98294.09
2023-04-16T08:45:59.402Z,98298.47
2023-04-16T08:49:10.158Z,98296.69
2023-04-16T08:52:22.155Z,98290.16
2023-04-16T08:55:40.518Z,98289.75
2023-04-16T08:58:50.622Z,98288.59
2023-04-16T09:02:02.131Z,98295.72
2023-04-16T09:05:12.539Z,98300.25
2023-04-16T09:08:21.494Z,98297.69
2023-04-16T09:11:30.603Z,98299.69
2023-04-16T09:14:38.480Z,98305.47
2023-04-16T09:17:45.292Z,98298.47
2023-04-16T09:20:53.659Z,98286.72
2023-04-16T09:24:00.173Z,98291.41
2023-04-16T09:27:11.422Z,98299.41
2023-04-16T09:30:29.112Z,98303.28
2023-04-16T09:33:35.613Z,98296.19
2023-04-16T09:36:41.205Z,98303.78
2023-04-16T09:39:49.022Z,98301.09
2023-04-16T09:43:01.434Z,98306.19
2023-04-16T09:46:08.723Z,98296.63
2023-04-16T09:49:19.343Z,98299.19
2023-04-16T09:52:30.412Z,98300.47
2023-04-16T09:55:36.773Z,98305.69
2023-04-16T09:58:46.275Z,98308.94
2023-04-16T10:01:58.062Z,98310.06
2023-04-16T10:05:23.177Z,98304.88
2023-04-16T10:08:28.806Z,98310.38
2023-04-16T10:11:35.604Z,98301.19
2023-04-16T10:14:45.338Z,98305.59
2023-04-16T10:17:54.074Z,98312.25
2023-04-16T10:21:01.822Z,98303.38
2023-04-16T10:24:10.969Z,98307.53
2023-04-16T10:27:16.844Z,98307.22
2023-04-16T10:30:26.787Z,98312.38
2023-04-16T10:33:36.735Z,98292.03
2023-04-16T10:36:43.328Z,98299.06
2023-04-16T10:39:49.966Z,98311.75
2023-04-16T10:43:01.739Z,98308.44
2023-04-16T10:46:27.015Z,98311.38
2023-04-16T10:49:33.726Z,98318.66
2023-04-16T10:52:39.462Z,98319.75
2023-04-16T10:56:00.918Z,98319.16
2023-04-16T10:59:09.459Z,98322.06
2023-04-16T11:02:24.191Z,98331.47
2023-04-16T11:05:49.764Z,98331.25
2023-04-16T11:08:57.259Z,98333.00
2023-04-16T11:12:10.703Z,98324.94
2023-04-16T11:15:19.875Z,98336.97
2023-04-16T11:18:29.309Z,98334.72
2023-04-16T11:21:37.276Z,98325.94
2023-04-16T11:24:43.431Z,98334.41
2023-04-16T11:27:49.880Z,98331.69
2023-04-16T11:30:55.785Z,98334.22
2023-04-16T11:34:04.998Z,98335.25
2023-04-16T11:37:11.166Z,98331.16
2023-04-16T11:40:18.015Z,98325.09
2023-04-16T11:43:23.677Z,98326.81
2023-04-16T11:46:42.768Z,98331.63
2023-04-16T11:49:52.199Z,98339.09
2023-04-16T11:53:07.178Z,98326.44
2023-04-16T11:56:13.132Z,98333.19
2023-04-16T11:59:23.262Z,98335.50
2023-04-16T12:02:40.185Z,98329.38
2023-04-16T12:05:49.772Z,98332.53
2023-04-16T12:09:04.210Z,98328.69
2023-04-16T12:12:31.575Z,98331.75
2023-04-16T12:15:51.733Z,98332.13
2023-04-16T12:19:06.670Z,98337.19
2023-04-16T12:22:16.229Z,98310.84
2023-04-16T12:25:23.359Z,98327.25
2023-04-16T12:28:35.227Z,98308.81
2023-04-16T12:31:43.605Z,98328.72
2023-04-16T12:34:54.382Z,98325.19
2023-04-16T12:38:04.374Z,98308.06
2023-04-16T12:41:11.110Z,98326.03
2023-04-16T12:44:21.978Z,98318.81
2023-04-16T12:47:27.867Z,98323.97
2023-04-16T12:50:34.714Z,98315.53
2023-04-16T12:53:43.081Z,98319.88
2023-04-16T12:56:49.642Z,98310.47
2023-04-16T12:59:55.275Z,98314.09
2023-04-16T13:03:01.899Z,98307.91
2023-04-16T13:06:08.127Z,98309.53
2023-04-16T13:09:18.417Z,98299.25
2023-04-16T13:12:24.126Z,98305.06
2023-04-16T13:15:30.701Z,98284.41
2023-04-16T13:18:36.906Z,98294.59
2023-04-16T13:25:05.281Z,98293.81
2023-04-16T13:28:11.913Z,98283.28
2023-04-16T13:31:20.790Z,98291.84
2023-04-16T13:34:27.616Z,98284.91
2023-04-16T13:37:33.237Z,98281.25
2023-04-16T13:40:42.264Z,98276.53
2023-04-16T13:43:47.887Z,98280.31
2023-04-16T13:46:54.408Z,98283.66
2023-04-16T13:50:00.012Z,98286.88
2023-04-16T13:53:06.636Z,98282.53
2023-04-16T13:56:15.540Z,98284.00
2023-04-16T13:59:22.194Z,98283.88
2023-04-16T14:02:28.517Z,98286.81
2023-04-16T14:05:35.151Z,98285.59
2023-04-16T14:08:41.075Z,98282.84
2023-04-16T14:11:50.137Z,98295.22
2023-04-16T14:14:57.256Z,98287.91
2023-04-16T14:18:03.996Z,98291.78
2023-04-16T14:21:09.737Z,98290.22
2023-04-16T14:24:16.095Z,98289.47
2023-04-16T14:27:27.614Z,98301.13
2023-04-16T14:30:34.026Z,98303.09
2023-04-16T14:33:39.892Z,98297.50
2023-04-16T14:36:46.505Z,98292.13
2023-04-16T14:39:54.253Z,98293.34
2023-04-16T14:43:03.284Z,98289.63
2023-04-16T14:46:09.284Z,98299.41
2023-04-16T14:49:15.970Z,98296.66
2023-04-16T14:52:21.799Z,98288.41
2023-04-16T14:55:28.257Z,98285.28
2023-04-16T14:58:37.842Z,98281.50
2023-04-16T15:01:46.656Z,98293.81
2023-04-16T15:04:52.365Z,98288.00
2023-04-16T15:07:58.834Z,98295.94
2023-04-16T15:11:04.507Z,98296.28
2023-04-16T15:14:14.763Z,98287.78
2023-04-16T15:17:20.632Z,98294.66
2023-04-16T15:20:27.281Z,98291.78
2023-04-16T15:23:32.883Z,98293.69
2023-04-16T15:26:39.887Z,98286.09
2023-04-16T15:29:49.798Z,98299.69
2023-04-16T15:32:56.746Z,98303.66
2023-04-16T15:36:02.663Z,98306.38
2023-04-16T15:39:09.925Z,98314.19
2023-04-16T15:42:16.008Z,98306.06
2023-04-16T15:45:25.177Z,98309.81
2023-04-16T15:48:31.061Z,98307.66
2023-04-16T15:51:37.673Z,98309.22
2023-04-16T15:54:43.928Z,98305.41
2023-04-16T15:57:50.455Z,98315.38
2023-04-16T16:00:58.765Z,98307.16
2023-04-16T16:04:05.609Z,98314.38
2023-04-16T16:07:11.518Z,98310.19
2023-04-16T16:10:18.046Z,98313.44
2023-04-16T16:13:23.690Z,98317.25
2023-04-16T16:16:33.118Z,98327.75
2023-04-16T16:19:38.894Z,98334.09
2023-04-16T16:22:48.626Z,98331.44
2023-04-16T16:25:55.696Z,98326.34
2023-04-16T16:29:02.296Z,98334.69
2023-04-16T16:32:11.008Z,98334.31
2023-04-16T16:35:17.441Z,98328.75
2023-04-16T16:38:23.159Z,98330.34
2023-04-16T16:41:29.604Z,98336.66
2023-04-16T16:44:35.202Z,98334.38
2023-04-16T16:47:44.446Z,98337.78
2023-04-16T16:50:50.247Z,98334.03
2023-04-16T16:53:57.036Z,98332.63
2023-04-16T16:57:02.615Z,98334.66
2023-04-16T17:00:14.501Z,98349.16
2023-04-16T17:03:22.893Z,98348.75
2023-04-16T17:06:29.762Z,98352.88
2023-04-16T17:09:38.830Z,98351.00
2023-04-16T17:12:47.309Z,98362.91
2023-04-16T17:15:52.892Z,98359.94
2023-04-16T17:19:02.056Z,98368.56
2023-04-16T17:22:07.652Z,98357.03
2023-04-16T17:25:15.182Z,98367.31
2023-04-16T17:28:21.103Z,98372.66
2023-04-16T17:31:29.921Z,98375.84
2023-04-16T17:34:38.339Z,98373.69
2023-04-16T17:37:44.797Z,98380.09
2023-04-16T17:40:50.584Z,98383.59
2023-04-16T17:43:57.059Z,98380.03
2023-04-16T17:47:02.794Z,98388.25
2023-04-16T17:50:13.705Z,98391.53
2023-04-16T17:53:19.321Z,98401.13
2023-04-16T17:56:25.778Z,98396.03
2023-04-16T17:59:31.451Z,98404.22
2023-04-16T18:02:39.487Z,98403.81
2023-04-16T18:05:47.813Z,98402.59
2023-04-16T18:08:54.268Z,98406.88
2023-04-16T18:12:03.471Z,98414.78
2023-04-16T18:15:12.062Z,98415.41
2023-04-16T18:18:17.664Z,98418.25
2023-04-16T18:21:27.690Z,98422.50
2023-04-16T18:24:35.525Z,98436.53
2023-04-16T18:27:41.985Z,98440.22
2023-04-16T18:30:47.580Z,98439.75
2023-04-16T18:33:57.898Z,98444.22
2023-04-16T18:37:07.207Z,98450.22
2023-04-16T18:40:15.653Z,98445.13
2023-04-16T18:43:21.382Z,98449.91
2023-04-16T18:46:28.094Z,98454.50
2023-04-16T18:49:33.882Z,98455.09
2023-04-16T18:52:43.643Z,98455.53
2023-04-16T18:55:49.264Z,98452.66
2023-04-16T18:58:55.714Z,98458.69
2023-04-16T19:02:01.431Z,98454.00
2023-04-16T19:05:09.192Z,98464.31
2023-04-16T19:08:17.354Z,98455.72
2023-04-16T19:11:23.982Z,98458.09
2023-04-16T19:14:29.601Z,98453.59
2023-04-16T19:17:36.162Z,98468.19
2023-04-16T19:20:42.353Z,98464.13
2023-04-16T19:23:51.726Z,98462.69
2023-04-16T19:26:57.505Z,98472.63
2023-04-16T19:30:06.550Z,98472.06
2023-04-16T19:33:12.246Z,98467.19
2023-04-16T19:36:18.874Z,98458.38
2023-04-16T19:39:29.624Z,98465.03
2023-04-16T19:42:37.005Z,98465.81
2023-04-16T19:45:46.827Z,98461.66
2023-04-16T19:48:53.399Z,98459.78
2023-04-16T19:51:59.943Z,98464.97
2023-04-16T19:55:10.970Z,98463.09
2023-04-16T19:58:16.967Z,98466.28
2023-04-16T20:01:23.564Z,98472.56
2023-04-16T20:04:29.487Z,98459.56
2023-04-16T20:07:36.356Z,98464.63
2023-04-16T20:10:44.758Z,98466.13
2023-04-16T20:13:51.378Z,98457.34
2023-04-16T20:16:57.655Z,98455.28
2023-04-16T20:20:10.098Z,98460.38
2023-04-16T20:23:16.005Z,98459.75
2023-04-16T20:26:28.413Z,98462.69
2023-04-16T20:29:34.208Z,98469.97
2023-04-16T20:32:40.736Z,98469.16
2023-04-16T20:35:46.410Z,98472.47
2023-04-16T20:38:54.104Z,98467.31
2023-04-16T20:42:04.502Z,98473.94
2023-04-16T20:45:12.999Z,98469.31
2023-04-16T20:48:18.615Z,98467.31
2023-04-16T20:51:25.082Z,98470.19
2023-04-16T20:54:31.231Z,98459.81
2023-04-16T20:57:40.181Z,98469.19
2023-04-16T21:00:45.897Z,98469.19
2023-04-16T21:03:52.522Z,98464.19
2023-04-16T21:06:58.444Z,98469.81
2023-04-16T21:10:05.350Z,98466.63
2023-04-16T21:13:13.904Z,98463.53
2023-04-16T21:16:20.408Z,98460.91
2023-04-16T21:19:27.399Z,98459.28
2023-04-16T21:22:33.748Z,98457.19
2023-04-16T21:25:39.259Z,98458.91
2023-04-16T21:28:48.458Z,98459.25
2023-04-16T21:31:54.180Z,98461.44
2023-04-16T21:35:00.996Z,98461.16
2023-04-16T21:38:06.813Z,98460.25
2023-04-16T21:41:13.230Z,98464.22
2023-04-16T21:44:21.378Z,98459.66
2023-04-16T21:47:27.728Z,98458.28
2023-04-16T21:50:33.366Z,98461.81
2023-04-16T21:53:40.079Z,98466.66
2023-04-16T21:56:46.434Z,98464.53
2023-04-16T21:59:55.368Z,98478.47
2023-04-16T22:03:01.189Z,98472.91
2023-04-16T22:06:08.763Z,98478.66
2023-04-16T22:09:14.321Z,98471.25
2023-04-16T22:12:20.756Z,98471.13
2023-04-16T22:15:29.236Z,98475.13
2023-04-16T22:18:35.761Z,98478.19
2023-04-16T22:21:41.586Z,98478.22
2023-04-16T22:24:48.003Z,98469.03
2023-04-16T22:27:53.899Z,98475.22
2023-04-16T22:31:03.276Z,98474.75
2023-04-16T22:34:12.218Z,98479.63
2023-04-16T22:37:18.898Z,98480.44
2023-04-16T22:40:24.532Z,98476.03
2023-04-16T22:43:30.965Z,98479.31
2023-04-16T22:46:39.178Z,98476.47
2023-04-16T22:49:45.614Z,98473.19
2023-04-16T22:52:51.405Z,98473.03
2023-04-16T22:55:57.969Z,98473.50
2023-04-16T22:59:03.587Z,98473.03
2023-04-16T23:02:12.757Z,98468.47
2023-04-16T23:05:18.450Z,98475.22
2023-04-16T23:08:27.175Z,98472.16
2023-04-16T23:11:32.709Z,98463.94
2023-04-16T23:14:39.882Z,98464.75
2023-04-16T23:17:48.705Z,98467.78
2023-04-16T23:20:56.979Z,98471.72
2023-04-16T23:24:03.625Z,98473.16
2023-04-16T23:27:10.087Z,98468.38
2023-04-16T23:30:16.765Z,98464.47
2023-04-16T23:33:25.839Z,98457.44
2023-04-16T23:36:31.690Z,98460.91
2023-04-16T23:39:38.083Z,98458.47
2023-04-16T23:42:43.741Z,98458.47
2023-04-16T23:45:50.181Z,98460.81
2023-04-16T23:48:58.414Z,98463.78
2023-04-16T23:52:05.807Z,98457.84
2023-04-16T23:55:12.232Z,98448.78
2023-04-16T23:58:18.814Z,98465.84
